This is the latest recevied weather packets stored in our database for station/object IZ3ZOD-13. If no packets are shown the sender has not sent any weather packets the latest 10 day(s).
| Time | Temp. | Humidity | Pressure | Rain* | Wind** | Luminosity | Snow |
|---|---|---|---|---|---|---|---|
| 1777321924 | 15.56° C | 75% | 1016.5 hPa | 0 mm | - | - | - |
| 1777320243 | 16.67° C | 72% | 1016.6 hPa | 0 mm | - | - | - |
| 1777318803 | 16.67° C | 71% | 1016.5 hPa | 0 mm | - | - | - |
| 1777318563 | 17.22° C | 70% | 1016.6 hPa | 0 mm | - | - | - |
| 1777313524 | 19.44° C | 59% | 1015.9 hPa | 0 mm | - | - | - |
| 1777312324 | 20.56° C | 56% | 1015.8 hPa | 0 mm | - | - | - |
| 1777311843 | 20.56° C | 55% | 1015.9 hPa | 0 mm | - | - | - |
| 1777310643 | 21.67° C | 54% | 1015.7 hPa | 0 mm | - | - | - |
| 1777306563 | 22.22° C | 52% | 1015.6 hPa | 0 mm | - | - | - |
| 1777306323 | 22.22° C | 52% | 1015.7 hPa | 0 mm | - | - | - |
| 1777305603 | 22.78° C | 51% | 1015.7 hPa | 0 mm | - | - | - |
| 1777304643 | 23.33° C | 52% | 1016 hPa | 0 mm | - | - | - |
| 1777304404 | 23.33° C | 51% | 1016 hPa | 0 mm | - | - | - |
| 1777302003 | 24.44° C | 53% | 1016.1 hPa | 0 mm | - | - | - |
| 1777300803 | 26.11° C | 47% | 1016.2 hPa | 0 mm | - | - | - |
| 1777298775 | 26.67° C | 41% | 1016.5 hPa | 0 mm | - | - | - |
| 1777294324 | 24.44° C | 41% | 1017.6 hPa | 0 mm | - | - | - |
| 1777291683 | 24.44° C | 42% | 1018.1 hPa | 0 mm | - | - | - |
| 1777291443 | 24.44° C | 42% | 1018.1 hPa | 0 mm | - | - | - |
| 1777288453 | 23.33° C | 41% | 1018.6 hPa | 0 mm | - | - | - |
| 1777286643 | 22.22° C | 43% | 1018.9 hPa | 0 mm | - | - | - |
| 1777285684 | 22.22° C | 44% | 1019 hPa | 0 mm | - | - | - |
| 1777281604 | 21.11° C | 46% | 1019.4 hPa | 0 mm | - | - | - |
| 1777281364 | 21.11° C | 44% | 1019.3 hPa | 0 mm | - | - | - |
| 1777281124 | 21.11° C | 44% | 1019.5 hPa | 0 mm | - | - | - |
* Rain latest hour (hover to see other rain measurements)
** Current wind speed in m/s (hover to see current wind gust speed)